UAE778K RJAA-OMDB
Flight info
| Callsign | UAE778K |
|---|---|
| Flight time | N/A |
| Altitude | 40000 |
| Route | REDEK Y60 ISAKY Y592 ONIKU A593 LAMEN/K0885F400 A593 AKARA/K0885S1220 A593 PK R343 MADUK W51 LEGIV W164 ADGOL W50 XSH W80 IDGAG A581 QNX W136 XISLI A581 SGM A599 LINSO/N0475F400 A599 CTG B465 CEA Q20 JJS A791 BPL L639 RASKI L301 RAGMA N571 VUSET A454 PASOV B540 MIVEK P574 IMPED |
| Aircraft | B77L/H-SDE1E2E3FGHIJ2J3J4J5M1RWXY/LB1D1 |
Departure
| Time | N/A |
|---|---|
| Airport | Narita International Airport (RJAA) |
Arrival
| Time | 2026-04-26 15:17 |
|---|---|
| Airport | Dubai International Airport (OMDB) |
| Time | Latitude | Longitude | Altitude | Speed | Heading |
|---|---|---|---|---|---|
| 2026-04-26 13:29 | 22.92117 | 69.00237 | 35784 ft | 488 kts | 274° |
| 2026-04-26 13:29 | 22.92413 | 68.95371 | 35785 ft | 489 kts | 275° |
| 2026-04-26 13:30 | 22.92859 | 68.87999 | 35783 ft | 489 kts | 274° |
| 2026-04-26 13:30 | 22.93299 | 68.80650 | 35787 ft | 488 kts | 274° |
| 2026-04-26 13:31 | 22.93737 | 68.73292 | 35789 ft | 489 kts | 274° |
| 2026-04-26 13:31 | 22.94172 | 68.65928 | 35785 ft | 488 kts | 274° |
| 2026-04-26 13:32 | 22.94600 | 68.58601 | 35786 ft | 486 kts | 274° |
| 2026-04-26 13:32 | 22.95023 | 68.51320 | 35781 ft | 481 kts | 274° |
| 2026-04-26 13:33 | 22.95440 | 68.44105 | 35786 ft | 478 kts | 274° |
| 2026-04-26 13:33 | 22.95778 | 68.38130 | 35789 ft | 477 kts | 274° |
| 2026-04-26 13:34 | 22.95872 | 68.30922 | 35788 ft | 478 kts | 271° |
| 2026-04-26 13:34 | 22.95838 | 68.23699 | 35792 ft | 480 kts | 271° |
| 2026-04-26 13:35 | 22.95818 | 68.16452 | 35791 ft | 481 kts | 271° |
| 2026-04-26 13:35 | 22.95816 | 68.09174 | 35793 ft | 483 kts | 271° |
| 2026-04-26 13:36 | 22.95816 | 68.01884 | 35794 ft | 484 kts | 271° |
| 2026-04-26 13:36 | 22.95810 | 67.94583 | 35795 ft | 484 kts | 271° |
| 2026-04-26 13:37 | 22.95800 | 67.87268 | 35794 ft | 485 kts | 271° |
| 2026-04-26 13:37 | 22.95808 | 67.79959 | 35793 ft | 484 kts | 271° |
| 2026-04-26 13:38 | 22.95830 | 67.72699 | 35794 ft | 484 kts | 271° |
| 2026-04-26 13:38 | 22.95846 | 67.65398 | 35796 ft | 483 kts | 271° |
| 2026-04-26 13:39 | 22.95856 | 67.58110 | 35798 ft | 483 kts | 271° |
| 2026-04-26 13:39 | 22.95862 | 67.50839 | 35795 ft | 482 kts | 271° |
| 2026-04-26 13:40 | 22.95864 | 67.43559 | 35794 ft | 482 kts | 271° |
| 2026-04-26 13:40 | 22.95863 | 67.36281 | 35797 ft | 482 kts | 271° |
| 2026-04-26 13:41 | 22.95859 | 67.29043 | 35798 ft | 482 kts | 271° |
| 2026-04-26 13:41 | 22.95852 | 67.21770 | 35796 ft | 482 kts | 271° |
| 2026-04-26 13:42 | 22.95841 | 67.14497 | 35799 ft | 482 kts | 271° |
| 2026-04-26 13:42 | 22.95827 | 67.07212 | 35799 ft | 482 kts | 271° |
| 2026-04-26 13:43 | 22.95810 | 66.99982 | 35800 ft | 482 kts | 271° |
| 2026-04-26 13:43 | 22.95804 | 66.92705 | 35799 ft | 482 kts | 271° |
| 2026-04-26 13:44 | 22.95851 | 66.85405 | 35804 ft | 482 kts | 271° |
| 2026-04-26 13:44 | 22.95905 | 66.78167 | 35803 ft | 482 kts | 271° |
| 2026-04-26 13:45 | 22.95949 | 66.70886 | 35804 ft | 482 kts | 271° |
| 2026-04-26 13:45 | 22.95985 | 66.63610 | 35802 ft | 482 kts | 271° |
| 2026-04-26 13:46 | 22.96017 | 66.56365 | 35802 ft | 482 kts | 271° |
| 2026-04-26 13:46 | 22.96045 | 66.49094 | 35804 ft | 482 kts | 271° |
| 2026-04-26 13:47 | 22.96070 | 66.41819 | 35802 ft | 481 kts | 271° |
| 2026-04-26 13:47 | 22.96092 | 66.34531 | 35802 ft | 481 kts | 271° |
| 2026-04-26 13:48 | 22.96111 | 66.27304 | 35804 ft | 481 kts | 271° |
| 2026-04-26 13:48 | 22.96127 | 66.20040 | 35804 ft | 481 kts | 271° |
| 2026-04-26 13:49 | 22.96139 | 66.12769 | 35806 ft | 481 kts | 271° |
| 2026-04-26 13:49 | 22.96147 | 66.05503 | 35805 ft | 481 kts | 271° |
| 2026-04-26 13:50 | 22.96153 | 65.98285 | 35809 ft | 481 kts | 271° |
| 2026-04-26 13:50 | 22.96155 | 65.91005 | 35808 ft | 481 kts | 271° |
| 2026-04-26 13:51 | 22.96154 | 65.83787 | 35807 ft | 481 kts | 271° |
| 2026-04-26 13:51 | 22.96150 | 65.76478 | 35807 ft | 481 kts | 271° |
| 2026-04-26 13:52 | 22.96142 | 65.69268 | 35809 ft | 481 kts | 271° |
| 2026-04-26 13:52 | 22.96131 | 65.61991 | 35804 ft | 481 kts | 271° |
| 2026-04-26 13:53 | 22.96117 | 65.54724 | 35806 ft | 481 kts | 271° |
| 2026-04-26 13:53 | 22.96099 | 65.47494 | 35807 ft | 481 kts | 271° |
| 2026-04-26 13:54 | 22.96078 | 65.40235 | 35810 ft | 481 kts | 271° |
| 2026-04-26 13:54 | 22.96054 | 65.32971 | 35810 ft | 481 kts | 271° |
| 2026-04-26 13:55 | 22.96017 | 65.23308 | 35808 ft | 481 kts | 271° |
| 2026-04-26 13:56 | 22.95962 | 65.11218 | 35809 ft | 481 kts | 271° |
| 2026-04-26 13:56 | 22.95924 | 65.03962 | 35810 ft | 481 kts | 271° |
| 2026-04-26 13:57 | 22.95884 | 64.96709 | 35810 ft | 481 kts | 271° |
| 2026-04-26 13:57 | 22.95840 | 64.89456 | 35807 ft | 481 kts | 271° |
| 2026-04-26 13:58 | 22.95882 | 64.82200 | 35814 ft | 479 kts | 276° |
| 2026-04-26 13:58 | 22.96603 | 64.75028 | 35803 ft | 478 kts | 279° |
| 2026-04-26 13:59 | 22.97408 | 64.67906 | 35810 ft | 478 kts | 279° |
| 2026-04-26 13:59 | 22.98190 | 64.60738 | 35809 ft | 478 kts | 278° |
| 2026-04-26 14:00 | 22.99694 | 64.46391 | 35809 ft | 478 kts | 278° |
| 2026-04-26 14:01 | 23.00438 | 64.39218 | 35806 ft | 478 kts | 278° |
| 2026-04-26 14:01 | 23.01180 | 64.32050 | 35809 ft | 478 kts | 278° |
| 2026-04-26 14:02 | 23.01919 | 64.24886 | 35804 ft | 478 kts | 278° |
| 2026-04-26 14:02 | 23.02654 | 64.17723 | 35806 ft | 477 kts | 278° |
| 2026-04-26 14:03 | 23.03386 | 64.10565 | 35806 ft | 477 kts | 278° |
| 2026-04-26 14:03 | 23.04113 | 64.03414 | 35806 ft | 477 kts | 278° |
| 2026-04-26 14:04 | 23.04837 | 63.96263 | 35807 ft | 476 kts | 278° |
| 2026-04-26 14:04 | 23.05557 | 63.89125 | 35803 ft | 476 kts | 278° |
| 2026-04-26 14:05 | 23.06285 | 63.81981 | 35805 ft | 476 kts | 278° |
| 2026-04-26 14:05 | 23.07036 | 63.74841 | 35802 ft | 476 kts | 279° |
| 2026-04-26 14:06 | 23.07785 | 63.67704 | 35803 ft | 476 kts | 278° |
| 2026-04-26 14:06 | 23.08523 | 63.60611 | 35805 ft | 476 kts | 278° |
| 2026-04-26 14:07 | 23.09259 | 63.53479 | 35805 ft | 476 kts | 278° |
| 2026-04-26 14:07 | 23.09994 | 63.46329 | 35804 ft | 476 kts | 278° |
| 2026-04-26 14:08 | 23.10725 | 63.39184 | 35806 ft | 476 kts | 278° |
| 2026-04-26 14:08 | 23.11452 | 63.32044 | 35805 ft | 476 kts | 278° |
| 2026-04-26 14:09 | 23.12177 | 63.24900 | 35804 ft | 476 kts | 278° |
| 2026-04-26 14:09 | 23.12899 | 63.17747 | 35803 ft | 476 kts | 278° |
| 2026-04-26 14:10 | 23.13617 | 63.10600 | 35803 ft | 476 kts | 278° |
| 2026-04-26 14:10 | 23.14332 | 63.03450 | 35804 ft | 476 kts | 278° |
| 2026-04-26 14:11 | 23.15397 | 62.92735 | 35804 ft | 475 kts | 278° |
| 2026-04-26 14:11 | 23.16099 | 62.85639 | 35803 ft | 475 kts | 278° |
| 2026-04-26 14:12 | 23.16801 | 62.78504 | 35801 ft | 474 kts | 278° |
| 2026-04-26 14:12 | 23.17498 | 62.71380 | 35804 ft | 474 kts | 278° |
| 2026-04-26 14:13 | 23.18537 | 62.60710 | 35804 ft | 473 kts | 278° |
| 2026-04-26 14:14 | 23.19225 | 62.53607 | 35801 ft | 472 kts | 278° |
| 2026-04-26 14:14 | 23.19910 | 62.46496 | 35805 ft | 472 kts | 278° |
| 2026-04-26 14:15 | 23.20590 | 62.39408 | 35804 ft | 471 kts | 278° |
| 2026-04-26 14:15 | 23.21269 | 62.32294 | 35804 ft | 471 kts | 278° |
| 2026-04-26 14:16 | 23.21937 | 62.25253 | 35804 ft | 471 kts | 278° |
| 2026-04-26 14:16 | 23.22607 | 62.18164 | 35804 ft | 471 kts | 278° |
| 2026-04-26 14:17 | 23.23273 | 62.11084 | 35803 ft | 471 kts | 278° |
| 2026-04-26 14:17 | 23.23937 | 62.03991 | 35804 ft | 471 kts | 278° |
| 2026-04-26 14:18 | 23.24593 | 61.96943 | 35802 ft | 471 kts | 278° |
| 2026-04-26 14:18 | 23.25253 | 61.89829 | 35803 ft | 471 kts | 278° |
| 2026-04-26 14:19 | 23.25903 | 61.82779 | 35802 ft | 471 kts | 278° |
| 2026-04-26 14:19 | 23.26553 | 61.75691 | 35804 ft | 470 kts | 278° |
| 2026-04-26 14:20 | 23.27200 | 61.68604 | 35802 ft | 470 kts | 278° |
| 2026-04-26 14:20 | 23.27841 | 61.61552 | 35805 ft | 470 kts | 278° |
| 2026-04-26 14:21 | 23.28482 | 61.54464 | 35802 ft | 470 kts | 278° |
| 2026-04-26 14:21 | 23.29012 | 61.48575 | 35799 ft | 470 kts | 278° |
| 2026-04-26 14:22 | 23.29644 | 61.41510 | 35804 ft | 469 kts | 278° |
| 2026-04-26 14:22 | 23.30275 | 61.34435 | 35800 ft | 469 kts | 278° |
| 2026-04-26 14:23 | 23.30896 | 61.27422 | 35803 ft | 468 kts | 278° |
| 2026-04-26 14:23 | 23.31520 | 61.20355 | 35800 ft | 468 kts | 278° |
| 2026-04-26 14:24 | 23.32242 | 61.13323 | 35801 ft | 466 kts | 281° |
| 2026-04-26 14:24 | 23.33159 | 61.06383 | 35801 ft | 466 kts | 281° |
| 2026-04-26 14:25 | 23.34077 | 60.99396 | 35802 ft | 466 kts | 281° |
| 2026-04-26 14:25 | 23.34954 | 60.92439 | 35800 ft | 466 kts | 281° |
| 2026-04-26 14:26 | 23.35823 | 60.85449 | 35800 ft | 465 kts | 281° |
| 2026-04-26 14:26 | 23.36690 | 60.78453 | 35802 ft | 465 kts | 281° |
| 2026-04-26 14:27 | 23.37550 | 60.71502 | 35804 ft | 465 kts | 281° |
| 2026-04-26 14:27 | 23.38665 | 60.64572 | 35801 ft | 462 kts | 288° |
| 2026-04-26 14:28 | 23.40738 | 60.57991 | 35807 ft | 458 kts | 295° |
| 2026-04-26 14:28 | 23.43118 | 60.51597 | 35800 ft | 458 kts | 295° |
| 2026-04-26 14:29 | 23.45506 | 60.45163 | 35799 ft | 458 kts | 295° |
| 2026-04-26 14:29 | 23.47868 | 60.38722 | 35803 ft | 457 kts | 294° |
| 2026-04-26 14:30 | 23.50203 | 60.32314 | 35802 ft | 457 kts | 294° |
| 2026-04-26 14:30 | 23.52550 | 60.25862 | 35803 ft | 457 kts | 294° |
| 2026-04-26 14:31 | 23.54889 | 60.19422 | 35799 ft | 456 kts | 294° |
| 2026-04-26 14:31 | 23.57210 | 60.13024 | 35799 ft | 456 kts | 294° |
| 2026-04-26 14:32 | 23.59540 | 60.06591 | 35796 ft | 456 kts | 294° |
| 2026-04-26 14:32 | 23.61865 | 60.00163 | 35794 ft | 455 kts | 294° |
| 2026-04-26 14:33 | 23.64190 | 59.93726 | 35794 ft | 455 kts | 294° |
| 2026-04-26 14:33 | 23.66501 | 59.87319 | 35797 ft | 455 kts | 294° |
| 2026-04-26 14:34 | 23.68806 | 59.80919 | 35798 ft | 455 kts | 294° |
| 2026-04-26 14:34 | 23.71118 | 59.74488 | 35795 ft | 454 kts | 294° |
| 2026-04-26 14:35 | 23.73427 | 59.68056 | 35795 ft | 454 kts | 294° |
| 2026-04-26 14:35 | 23.75717 | 59.61667 | 35794 ft | 454 kts | 294° |
| 2026-04-26 14:36 | 23.78017 | 59.55241 | 35794 ft | 454 kts | 294° |
| 2026-04-26 14:36 | 23.80316 | 59.48810 | 35793 ft | 454 kts | 294° |
| 2026-04-26 14:37 | 23.82611 | 59.42378 | 35793 ft | 453 kts | 294° |
| 2026-04-26 14:37 | 23.84884 | 59.35999 | 35794 ft | 453 kts | 294° |
| 2026-04-26 14:38 | 23.87169 | 59.29576 | 35794 ft | 453 kts | 294° |
| 2026-04-26 14:38 | 23.89450 | 59.23152 | 35792 ft | 453 kts | 294° |
| 2026-04-26 14:39 | 23.91722 | 59.16747 | 35795 ft | 452 kts | 293° |
| 2026-04-26 14:39 | 23.93947 | 59.10319 | 35796 ft | 452 kts | 292° |
| 2026-04-26 14:40 | 23.96020 | 59.03829 | 35793 ft | 452 kts | 291° |
| 2026-04-26 14:40 | 23.98072 | 58.97345 | 35793 ft | 451 kts | 291° |
| 2026-04-26 14:41 | 24.00141 | 58.90867 | 35794 ft | 451 kts | 291° |
| 2026-04-26 14:41 | 24.02212 | 58.84400 | 35794 ft | 450 kts | 291° |
| 2026-04-26 14:42 | 24.04281 | 58.77931 | 35795 ft | 450 kts | 291° |
| 2026-04-26 14:42 | 24.06332 | 58.71509 | 35798 ft | 450 kts | 291° |
| 2026-04-26 14:43 | 24.08393 | 58.65040 | 35797 ft | 450 kts | 291° |
| 2026-04-26 14:43 | 24.10452 | 58.58572 | 35798 ft | 450 kts | 291° |
| 2026-04-26 14:44 | 24.12504 | 58.52102 | 35795 ft | 450 kts | 291° |
| 2026-04-26 14:44 | 24.14550 | 58.45633 | 35796 ft | 449 kts | 291° |
| 2026-04-26 14:45 | 24.16591 | 58.39168 | 35796 ft | 449 kts | 291° |
| 2026-04-26 14:45 | 24.18630 | 58.32699 | 35798 ft | 449 kts | 291° |
| 2026-04-26 14:46 | 24.20663 | 58.26238 | 35799 ft | 449 kts | 291° |
| 2026-04-26 14:46 | 24.22694 | 58.19776 | 35801 ft | 448 kts | 291° |
| 2026-04-26 14:47 | 24.24718 | 58.13323 | 35801 ft | 448 kts | 291° |
| 2026-04-26 14:47 | 24.26743 | 58.06858 | 35802 ft | 448 kts | 291° |
| 2026-04-26 14:48 | 24.28762 | 58.00400 | 35801 ft | 448 kts | 291° |
| 2026-04-26 14:48 | 24.30778 | 57.93938 | 35803 ft | 448 kts | 291° |
| 2026-04-26 14:49 | 24.32789 | 57.87487 | 35804 ft | 447 kts | 291° |
| 2026-04-26 14:49 | 24.34797 | 57.81030 | 35804 ft | 447 kts | 290° |
| 2026-04-26 14:50 | 24.36803 | 57.74569 | 35803 ft | 447 kts | 290° |
| 2026-04-26 14:50 | 24.38807 | 57.68106 | 35805 ft | 447 kts | 290° |
| 2026-04-26 14:51 | 24.40666 | 57.62099 | 35809 ft | 447 kts | 290° |
| 2026-04-26 14:51 | 24.42647 | 57.55688 | 35808 ft | 447 kts | 290° |
| 2026-04-26 14:52 | 24.44641 | 57.49227 | 35812 ft | 447 kts | 290° |
| 2026-04-26 14:52 | 24.46635 | 57.42771 | 35813 ft | 446 kts | 290° |
| 2026-04-26 14:53 | 24.48625 | 57.36318 | 35813 ft | 446 kts | 290° |
| 2026-04-26 14:53 | 24.50610 | 57.29867 | 35813 ft | 446 kts | 290° |
| 2026-04-26 14:54 | 24.52590 | 57.23417 | 35816 ft | 445 kts | 290° |
| 2026-04-26 14:54 | 24.54566 | 57.16972 | 35823 ft | 445 kts | 290° |
| 2026-04-26 14:54 | 24.55551 | 57.13755 | 35648 ft | 448 kts | 290° |
| 2026-04-26 14:55 | 24.56560 | 57.10462 | 34783 ft | 458 kts | 290° |
| 2026-04-26 14:55 | 24.57573 | 57.07150 | 33959 ft | 458 kts | 290° |
| 2026-04-26 14:55 | 24.58589 | 57.03822 | 32964 ft | 460 kts | 289° |
| 2026-04-26 14:55 | 24.59606 | 57.00488 | 32007 ft | 460 kts | 289° |
| 2026-04-26 14:56 | 24.60624 | 56.97148 | 31032 ft | 462 kts | 288° |
| 2026-04-26 14:56 | 24.61641 | 56.93807 | 30311 ft | 460 kts | 288° |
| 2026-04-26 14:56 | 24.62654 | 56.90479 | 29532 ft | 458 kts | 287° |
| 2026-04-26 14:56 | 24.63676 | 56.87170 | 28768 ft | 455 kts | 289° |
| 2026-04-26 14:57 | 24.64889 | 56.83967 | 28053 ft | 453 kts | 293° |
| 2026-04-26 14:57 | 24.66343 | 56.80911 | 27391 ft | 450 kts | 298° |
| 2026-04-26 14:57 | 24.67967 | 56.77989 | 26735 ft | 447 kts | 299° |
| 2026-04-26 14:57 | 24.69594 | 56.75085 | 26087 ft | 443 kts | 299° |
| 2026-04-26 14:58 | 24.71201 | 56.72205 | 25472 ft | 440 kts | 299° |
| 2026-04-26 14:58 | 24.72785 | 56.69348 | 24845 ft | 437 kts | 298° |
| 2026-04-26 14:58 | 24.74359 | 56.66495 | 24228 ft | 435 kts | 298° |
| 2026-04-26 14:58 | 24.75921 | 56.63653 | 23612 ft | 433 kts | 298° |
| 2026-04-26 14:59 | 24.77475 | 56.60821 | 22917 ft | 431 kts | 298° |
| 2026-04-26 14:59 | 24.79017 | 56.58006 | 22287 ft | 427 kts | 298° |
| 2026-04-26 14:59 | 24.80545 | 56.55218 | 21685 ft | 424 kts | 298° |
| 2026-04-26 14:59 | 24.81550 | 56.53382 | 21293 ft | 421 kts | 298° |
| 2026-04-26 15:00 | 24.83564 | 56.49704 | 20530 ft | 417 kts | 299° |
| 2026-04-26 15:00 | 24.85056 | 56.46978 | 19969 ft | 414 kts | 299° |
| 2026-04-26 15:00 | 24.86531 | 56.44272 | 19404 ft | 409 kts | 298° |
| 2026-04-26 15:00 | 24.87681 | 56.41430 | 18836 ft | 405 kts | 286° |
| 2026-04-26 15:01 | 24.88296 | 56.38415 | 18285 ft | 403 kts | 277° |
| 2026-04-26 15:01 | 24.88429 | 56.35343 | 17649 ft | 401 kts | 266° |
| 2026-04-26 15:01 | 24.88224 | 56.32292 | 17064 ft | 398 kts | 265° |
| 2026-04-26 15:01 | 24.88038 | 56.29265 | 16491 ft | 393 kts | 268° |
| 2026-04-26 15:02 | 24.88258 | 56.26270 | 15936 ft | 392 kts | 280° |
| 2026-04-26 15:02 | 24.88982 | 56.23378 | 15386 ft | 391 kts | 289° |
| 2026-04-26 15:02 | 24.90112 | 56.20666 | 14849 ft | 391 kts | 298° |
| 2026-04-26 15:02 | 24.91452 | 56.18111 | 14306 ft | 389 kts | 299° |
| 2026-04-26 15:03 | 24.92813 | 56.15536 | 13752 ft | 388 kts | 299° |
| 2026-04-26 15:03 | 24.94156 | 56.12956 | 13148 ft | 387 kts | 298° |
| 2026-04-26 15:03 | 24.95475 | 56.10387 | 12694 ft | 383 kts | 298° |
| 2026-04-26 15:03 | 24.96684 | 56.07812 | 12469 ft | 371 kts | 292° |
| 2026-04-26 15:04 | 24.97529 | 56.05270 | 12286 ft | 336 kts | 287° |
| 2026-04-26 15:04 | 24.98230 | 56.02936 | 12026 ft | 307 kts | 288° |
| 2026-04-26 15:04 | 24.98877 | 56.00786 | 11721 ft | 284 kts | 288° |
| 2026-04-26 15:04 | 24.99483 | 55.98781 | 11290 ft | 268 kts | 288° |
| 2026-04-26 15:05 | 25.00060 | 55.96876 | 10772 ft | 259 kts | 288° |
| 2026-04-26 15:05 | 25.00252 | 55.96244 | 10551 ft | 259 kts | 288° |
| 2026-04-26 15:05 | 25.01202 | 55.93124 | 9389 ft | 257 kts | 288° |
| 2026-04-26 15:05 | 25.01768 | 55.91263 | 8646 ft | 255 kts | 289° |
| 2026-04-26 15:06 | 25.02329 | 55.89425 | 7929 ft | 252 kts | 289° |
| 2026-04-26 15:06 | 25.02884 | 55.87603 | 7227 ft | 249 kts | 290° |
| 2026-04-26 15:06 | 25.03433 | 55.85802 | 6598 ft | 245 kts | 290° |
| 2026-04-26 15:06 | 25.03972 | 55.84040 | 6367 ft | 246 kts | 290° |
| 2026-04-26 15:07 | 25.05091 | 55.80376 | 5724 ft | 259 kts | 290° |
| 2026-04-26 15:07 | 25.05670 | 55.78479 | 5245 ft | 262 kts | 290° |
| 2026-04-26 15:07 | 25.06248 | 55.76581 | 4753 ft | 255 kts | 289° |
| 2026-04-26 15:08 | 25.06798 | 55.74773 | 4267 ft | 241 kts | 290° |
| 2026-04-26 15:08 | 25.07141 | 55.73643 | 4142 ft | 227 kts | 290° |
| 2026-04-26 15:08 | 25.07634 | 55.72023 | 4043 ft | 218 kts | 289° |
| 2026-04-26 15:08 | 25.08107 | 55.70471 | 4041 ft | 207 kts | 289° |
| 2026-04-26 15:09 | 25.08559 | 55.68983 | 4018 ft | 206 kts | 290° |
| 2026-04-26 15:09 | 25.09017 | 55.67480 | 3953 ft | 206 kts | 290° |
| 2026-04-26 15:09 | 25.09465 | 55.66007 | 3552 ft | 198 kts | 289° |
| 2026-04-26 15:09 | 25.09892 | 55.64599 | 3121 ft | 188 kts | 289° |
| 2026-04-26 15:10 | 25.10336 | 55.63275 | 2700 ft | 181 kts | 297° |
| 2026-04-26 15:10 | 25.10759 | 55.62470 | 2429 ft | 177 kts | 302° |
| 2026-04-26 15:10 | 25.11628 | 55.61011 | 2041 ft | 168 kts | 303° |
| 2026-04-26 15:10 | 25.12283 | 55.59880 | 2028 ft | 178 kts | 302° |
| 2026-04-26 15:11 | 25.12933 | 55.58732 | 2010 ft | 174 kts | 302° |
| 2026-04-26 15:11 | 25.13542 | 55.57639 | 1980 ft | 159 kts | 301° |
| 2026-04-26 15:11 | 25.14092 | 55.56650 | 1965 ft | 143 kts | 301° |
| 2026-04-26 15:11 | 25.14597 | 55.55741 | 2015 ft | 137 kts | 300° |
| 2026-04-26 15:12 | 25.15093 | 55.54841 | 2006 ft | 137 kts | 301° |
| 2026-04-26 15:12 | 25.15589 | 55.53948 | 2000 ft | 136 kts | 301° |
| 2026-04-26 15:12 | 25.16090 | 55.53045 | 2019 ft | 140 kts | 300° |
| 2026-04-26 15:12 | 25.16602 | 55.52117 | 2017 ft | 143 kts | 301° |
| 2026-04-26 15:13 | 25.17127 | 55.51166 | 2003 ft | 146 kts | 301° |
| 2026-04-26 15:13 | 25.17654 | 55.50215 | 2003 ft | 144 kts | 301° |
| 2026-04-26 15:13 | 25.18167 | 55.49288 | 1989 ft | 138 kts | 302° |
| 2026-04-26 15:13 | 25.18674 | 55.48375 | 1818 ft | 140 kts | 300° |
| 2026-04-26 15:14 | 25.19174 | 55.47470 | 1659 ft | 137 kts | 300° |
| 2026-04-26 15:14 | 25.19667 | 55.46576 | 1472 ft | 136 kts | 301° |
| 2026-04-26 15:14 | 25.20166 | 55.45676 | 1308 ft | 141 kts | 301° |
| 2026-04-26 15:14 | 25.20680 | 55.44745 | 1134 ft | 143 kts | 300° |
| 2026-04-26 15:15 | 25.21200 | 55.43805 | 955 ft | 144 kts | 300° |
| 2026-04-26 15:15 | 25.21688 | 55.42921 | 785 ft | 137 kts | 301° |
| 2026-04-26 15:15 | 25.22184 | 55.42037 | 579 ft | 135 kts | 300° |
| 2026-04-26 15:15 | 25.22680 | 55.41131 | 408 ft | 138 kts | 300° |
| 2026-04-26 15:16 | 25.23178 | 55.40240 | 252 ft | 136 kts | 301° |
| 2026-04-26 15:16 | 25.23675 | 55.39344 | 52 ft | 136 kts | 300° |
| 2026-04-26 15:16 | 25.24132 | 55.38513 | 35 ft | 109 kts | 301° |
| 2026-04-26 15:16 | 25.24447 | 55.37940 | 34 ft | 65 kts | 301° |
| 2026-04-26 15:17 | 25.24653 | 55.37572 | 32 ft | 52 kts | 301° |
| 2026-04-26 15:17 | 25.24774 | 55.37353 | 33 ft | 48 kts | 301° |
| 2026-04-26 15:17 | 25.24994 | 55.36958 | 34 ft | 42 kts | 302° |
| 2026-04-26 15:17 | 25.25142 | 55.36689 | 33 ft | 39 kts | 302° |
| 2026-04-26 15:18 | 25.25271 | 55.36459 | 32 ft | 32 kts | 301° |
| 2026-04-26 15:18 | 25.25385 | 55.36254 | 27 ft | 31 kts | 301° |
| 2026-04-26 15:18 | 25.25493 | 55.36057 | 29 ft | 30 kts | 301° |
| 2026-04-26 15:18 | 25.25598 | 55.35876 | 31 ft | 21 kts | 317° |
| 2026-04-26 15:19 | 25.25680 | 55.35880 | 30 ft | 0 kts | 29° |
| 2026-04-26 15:19 | 25.25732 | 55.35912 | 27 ft | 15 kts | 21° |